DAFH

Hassi R'Mel Airport

Algeria
TAF DAFH 200800Z 2009/2018 27010KT 9999 BKN030 BECMG 2012/2014 27020KT PROB30 TEMPO 2012/2015 5000 -RA FEW030CB
Issued Valid From Valid To
Jan-20 @ 08:00 UTC
(4 hours ago)
Jan-20 @ 09:00 UTC
(3 hours ago)
Jan-20 @ 18:00 UTC
(in 6 hours)
Jan-20 @ 09:00 to Jan-20 @ 12:00
TAF DAFH 200800Z 2009/2018 27010KT 9999 BKN030
Wind Visibility Clouds
270° at 10 knots 10,000+ meters
  • Broken at 3,000' AGL
Temporary  (Probability 30%) Jan-20 @ 12:00 to Jan-20 @ 15:00
PROB30 TEMPO 2012/2015 5000 -RA FEW030CB
Visibility Clouds Conditions
5,005 meters
  • Few at 3,000' AGL
  • Light Rain
Becoming Jan-20 @ 12:00 to Jan-20 @ 18:00
BECMG 2012/2014 27020KT
Wind Visibility Clouds
270° at 20 knots 10,000+ meters
  • Broken at 3,000' AGL
TAF DAFH 200800Z 2009/2018 27010KT 9999 BKN030 BECMG 2012/2014 27020KT PROB30 TEMPO 2012/2015 5000 -RA FEW030CB
Issued Jan-20 @ 08:00 UTC
(4 hours ago)
Valid From Jan-20 @ 09:00 UTC
(3 hours ago)
Valid To Jan-20 @ 18:00 UTC
(in 6 hours)
Jan-20 @ 09:00 - Jan-20 @ 12:00
Wind Visibility
270° at 10 knots 10,000+ meters
Clouds
  • Broken at 3,000' AGL
Probability 30% Temporary Jan-20 @ 12:00 - Jan-20 @ 15:00
Clouds
  • Few at 3,000' AGL
Conditions
  • Light Rain
Becoming Jan-20 @ 12:00 - Jan-20 @ 18:00
Wind Visibility
270° at 20 knots 10,000+ meters
Clouds
  • Broken at 3,000' AGL